createdAt,value
2022-11-20T00:00:11.635Z,33.03
2022-11-20T00:03:14.240Z,29.10
2022-11-20T00:06:18.470Z,31.02
2022-11-20T00:09:22.641Z,30.70
2022-11-20T00:12:25.305Z,30.83
2022-11-20T00:15:27.744Z,31.25
2022-11-20T00:18:30.300Z,31.42
2022-11-20T00:21:34.220Z,31.33
2022-11-20T00:24:42.883Z,32.83
2022-11-20T00:27:45.712Z,32.88
2022-11-20T00:30:48.137Z,31.05
2022-11-20T00:33:50.949Z,33.92
2022-11-20T00:36:53.436Z,32.00
2022-11-20T00:39:57.394Z,30.30
2022-11-20T00:42:59.824Z,32.22
2022-11-20T00:46:04.187Z,29.92
2022-11-20T00:49:06.630Z,33.05
2022-11-20T00:52:27.626Z,31.88
2022-11-20T00:55:31.367Z,32.10
2022-11-20T00:58:35.926Z,31.98
2022-11-20T01:01:38.901Z,33.80
2022-11-20T01:04:41.719Z,34.47
2022-11-20T01:07:44.158Z,32.88
2022-11-20T01:10:48.020Z,31.77
2022-11-20T01:13:52.078Z,31.85
2022-11-20T01:16:54.575Z,30.95
2022-11-20T01:19:56.970Z,32.13
2022-11-20T01:22:59.360Z,35.47
2022-11-20T01:26:05.556Z,32.87
2022-11-20T01:29:11.633Z,33.00
2022-11-20T01:32:14.051Z,36.40
2022-11-20T01:35:16.561Z,33.20
2022-11-20T01:38:21.039Z,34.38
2022-11-20T01:41:48.475Z,36.20
2022-11-20T01:44:55.384Z,39.15
2022-11-20T01:47:57.943Z,33.42
2022-11-20T01:51:02.478Z,32.95
2022-11-20T01:54:09.685Z,34.05
2022-11-20T01:57:15.032Z,31.40
2022-11-20T02:00:20.047Z,33.28
2022-11-20T02:03:22.661Z,34.58
2022-11-20T02:06:28.492Z,30.58
2022-11-20T02:09:30.978Z,31.90
2022-11-20T02:12:53.710Z,34.07
2022-11-20T02:15:56.450Z,30.02
2022-11-20T02:19:01.447Z,30.58
2022-11-20T02:22:11.216Z,35.65
2022-11-20T02:25:16.182Z,29.10
2022-11-20T02:28:19.292Z,28.17
2022-11-20T02:31:21.768Z,31.55
2022-11-20T02:34:24.218Z,33.35
2022-11-20T02:37:33.360Z,27.48
2022-11-20T02:40:37.391Z,31.42
2022-11-20T02:43:39.800Z,31.43
2022-11-20T02:46:42.262Z,31.52
2022-11-20T02:49:44.726Z,30.40
2022-11-20T02:52:47.416Z,31.08
2022-11-20T02:55:51.299Z,29.58
2022-11-20T02:58:53.836Z,32.13
2022-11-20T03:01:57.253Z,31.77
2022-11-20T03:04:59.959Z,31.20
2022-11-20T03:08:02.370Z,30.83
2022-11-20T03:11:08.090Z,27.52
2022-11-20T03:14:10.547Z,32.67
2022-11-20T03:17:12.954Z,27.63
2022-11-20T03:20:15.753Z,30.17
2022-11-20T03:23:18.207Z,29.83
2022-11-20T03:26:24.128Z,27.02
2022-11-20T03:29:26.820Z,27.40
2022-11-20T03:32:29.336Z,29.40
2022-11-20T03:35:31.778Z,26.15
2022-11-20T03:38:34.869Z,28.33
2022-11-20T03:41:40.533Z,29.30
2022-11-20T03:44:42.931Z,27.50
2022-11-20T03:47:46.207Z,30.30
2022-11-20T03:50:48.823Z,29.00
2022-11-20T03:53:53.283Z,28.00
2022-11-20T03:56:57.412Z,24.27
2022-11-20T04:00:00.371Z,29.97
2022-11-20T04:03:03.761Z,27.85
2022-11-20T04:06:08.462Z,27.65
2022-11-20T04:09:11.051Z,25.23
2022-11-20T04:12:14.815Z,29.08
2022-11-20T04:15:17.559Z,28.13
2022-11-20T04:18:19.941Z,23.55
2022-11-20T04:21:23.373Z,27.95
2022-11-20T04:24:25.842Z,28.73
2022-11-20T04:27:29.610Z,27.67
2022-11-20T04:30:32.111Z,25.70
2022-11-20T04:33:35.090Z,26.77
2022-11-20T04:36:37.528Z,23.25
2022-11-20T04:39:39.972Z,25.77
2022-11-20T04:42:43.871Z,29.02
2022-11-20T04:45:51.598Z,31.87
2022-11-20T04:48:54.343Z,34.65
2022-11-20T04:51:56.734Z,35.72
2022-11-20T04:54:59.136Z,28.73
2022-11-20T04:58:02.979Z,29.70
2022-11-20T05:01:07.433Z,28.03
2022-11-20T05:04:09.991Z,26.42
2022-11-20T05:07:12.421Z,31.13
2022-11-20T05:10:15.372Z,28.40
2022-11-20T05:13:19.235Z,26.50
2022-11-20T05:16:24.066Z,28.33
2022-11-20T05:19:26.812Z,27.85
2022-11-20T05:22:29.256Z,27.88
2022-11-20T05:25:31.665Z,25.95
2022-11-20T05:28:54.174Z,26.45
2022-11-20T05:31:56.587Z,26.40
2022-11-20T05:34:59.035Z,29.95
2022-11-20T05:38:01.450Z,31.20
2022-11-20T05:41:05.667Z,29.23
2022-11-20T05:44:11.389Z,27.85
2022-11-20T05:47:13.828Z,26.70
2022-11-20T05:50:16.402Z,25.90
2022-11-20T05:53:19.175Z,24.65
2022-11-20T05:56:22.836Z,27.38
2022-11-20T05:59:26.827Z,27.98
2022-11-20T06:02:29.281Z,25.27
2022-11-20T06:05:31.833Z,28.45
2022-11-20T06:08:34.715Z,27.48
2022-11-20T06:11:37.285Z,25.15
2022-11-20T06:14:41.022Z,32.45
2022-11-20T06:17:43.417Z,32.03
2022-11-20T06:20:46.166Z,32.05
2022-11-20T06:23:49.521Z,29.17
2022-11-20T06:26:52.152Z,28.80
2022-11-20T06:29:55.979Z,31.27
2022-11-20T06:32:58.398Z,24.80
2022-11-20T06:36:07.190Z,22.65
2022-11-20T06:39:11.749Z,29.33
2022-11-20T06:42:14.257Z,29.33
2022-11-20T06:45:18.076Z,34.50
2022-11-20T06:48:21.118Z,29.20
2022-11-20T06:51:23.535Z,27.08
2022-11-20T06:54:26.018Z,31.75
2022-11-20T06:57:28.438Z,30.75
2022-11-20T07:00:32.314Z,31.08
2022-11-20T07:03:34.851Z,27.00
2022-11-20T07:06:37.387Z,28.52
2022-11-20T07:09:40.256Z,29.48
2022-11-20T07:12:42.908Z,27.50
2022-11-20T07:15:46.696Z,25.58
2022-11-20T07:18:51.083Z,27.87
2022-11-20T07:21:53.894Z,27.30
2022-11-20T07:24:56.516Z,30.75
2022-11-20T07:27:59.765Z,26.98
2022-11-20T07:31:05.997Z,29.30
2022-11-20T07:34:08.726Z,27.30
2022-11-20T07:37:11.203Z,29.27
2022-11-20T07:40:13.847Z,30.88
2022-11-20T07:43:16.346Z,29.67
2022-11-20T07:46:20.158Z,32.05
2022-11-20T07:49:22.773Z,26.67
2022-11-20T07:52:25.451Z,24.60
2022-11-20T07:55:27.914Z,29.23
2022-11-20T07:58:31.320Z,24.63
2022-11-20T08:01:35.484Z,27.08
2022-11-20T08:04:37.917Z,26.07
2022-11-20T08:07:41.621Z,23.85
2022-11-20T08:10:44.070Z,27.35
2022-11-20T08:14:05.350Z,30.85
2022-11-20T08:17:09.174Z,30.27
2022-11-20T08:20:11.863Z,26.03
2022-11-20T08:23:14.705Z,34.40
2022-11-20T08:26:17.160Z,30.83
2022-11-20T08:29:19.974Z,29.90
2022-11-20T08:32:23.875Z,36.45
2022-11-20T08:35:26.333Z,24.77
2022-11-20T08:38:29.256Z,32.97
2022-11-20T08:41:34.270Z,25.67
2022-11-20T08:44:36.868Z,26.40
2022-11-20T08:47:41.043Z,24.63
2022-11-20T08:50:43.529Z,21.80
2022-11-20T08:53:46.145Z,27.23
2022-11-20T08:56:48.698Z,31.20
2022-11-20T09:00:05.412Z,22.92
2022-11-20T09:03:10.391Z,23.40
2022-11-20T09:06:13.292Z,28.40
2022-11-20T09:09:15.777Z,25.50
2022-11-20T09:12:18.315Z,27.90
2022-11-20T09:15:21.064Z,27.50
2022-11-20T09:18:25.394Z,23.90
2022-11-20T09:21:27.891Z,26.50
2022-11-20T09:24:30.897Z,26.73
2022-11-20T09:27:33.383Z,23.50
2022-11-20T09:30:36.199Z,22.48
2022-11-20T09:33:40.037Z,21.75
2022-11-20T09:36:42.452Z,21.47
2022-11-20T09:39:44.971Z,24.63
2022-11-20T09:42:55.242Z,26.30
2022-11-20T09:46:14.625Z,24.95
2022-11-20T09:49:32.280Z,19.88
2022-11-20T09:52:47.287Z,24.73
2022-11-20T09:55:50.131Z,24.98
2022-11-20T09:58:55.578Z,28.42
2022-11-20T10:02:00.220Z,25.67
2022-11-20T10:05:11.978Z,21.77
2022-11-20T10:08:21.186Z,22.27
2022-11-20T10:11:34.223Z,24.48
2022-11-20T10:14:51.651Z,25.90
2022-11-20T10:18:18.193Z,25.85
2022-11-20T10:21:31.499Z,25.75
2022-11-20T10:24:43.383Z,20.17
2022-11-20T10:28:18.981Z,22.42
2022-11-20T10:31:30.342Z,19.33
2022-11-20T10:34:48.014Z,23.45
2022-11-20T10:37:57.486Z,26.05
2022-11-20T10:41:21.426Z,21.27
2022-11-20T10:44:46.963Z,29.92
2022-11-20T10:47:49.882Z,23.63
2022-11-20T10:51:16.896Z,24.58
2022-11-20T10:54:25.456Z,22.58
2022-11-20T10:57:47.946Z,23.40
2022-11-20T11:00:50.508Z,23.85
2022-11-20T11:03:54.053Z,23.80
2022-11-20T11:07:02.169Z,20.60
2022-11-20T11:10:18.881Z,23.13
2022-11-20T11:13:23.435Z,30.50
2022-11-20T11:16:28.027Z,24.67
2022-11-20T11:19:30.512Z,22.25
2022-11-20T11:22:35.680Z,24.85
2022-11-20T11:25:40.477Z,24.90
2022-11-20T11:28:43.026Z,23.40
2022-11-20T11:31:45.421Z,25.17
2022-11-20T11:35:00.093Z,27.08
2022-11-20T11:38:10.682Z,23.70
2022-11-20T11:41:20.367Z,21.58
2022-11-20T11:44:46.748Z,28.87
2022-11-20T11:47:49.757Z,24.83
2022-11-20T11:50:53.018Z,24.88
2022-11-20T11:53:59.684Z,20.83
2022-11-20T11:57:11.672Z,24.90
2022-11-20T12:00:16.410Z,20.80
2022-11-20T12:03:22.618Z,22.50
2022-11-20T12:06:27.420Z,30.00
2022-11-20T12:09:38.594Z,24.42
2022-11-20T12:12:47.649Z,25.35
2022-11-20T12:15:50.566Z,28.63
2022-11-20T12:18:54.082Z,25.75
2022-11-20T12:22:06.407Z,22.85
2022-11-20T12:25:12.906Z,23.08
2022-11-20T12:28:42.983Z,25.98
2022-11-20T12:32:03.801Z,21.77
2022-11-20T12:35:19.276Z,23.45
2022-11-20T12:38:43.608Z,28.05
2022-11-20T12:42:22.182Z,26.63
2022-11-20T12:45:55.466Z,27.42
2022-11-20T12:49:11.058Z,27.37
2022-11-20T12:52:35.256Z,25.17
2022-11-20T12:55:48.185Z,25.33
2022-11-20T12:59:02.395Z,51.90
2022-11-20T13:02:25.920Z,24.85
2022-11-20T13:05:38.111Z,25.63
2022-11-20T13:08:42.090Z,24.48
2022-11-20T13:11:48.533Z,25.08
2022-11-20T13:14:57.154Z,22.98
2022-11-20T13:18:03.713Z,20.58
2022-11-20T13:21:15.760Z,25.67
2022-11-20T13:24:25.001Z,20.42
2022-11-20T13:27:28.029Z,26.33
2022-11-20T13:30:31.600Z,27.33
2022-11-20T13:33:37.669Z,25.02
2022-11-20T13:36:50.784Z,54.67
2022-11-20T13:39:53.498Z,32.83
2022-11-20T13:43:03.299Z,31.40
2022-11-20T13:46:07.845Z,31.05
2022-11-20T13:49:19.420Z,31.00
2022-11-20T13:52:40.437Z,24.97
2022-11-20T13:55:52.971Z,36.17
2022-11-20T13:59:05.336Z,35.05
2022-11-20T14:02:13.971Z,32.03
2022-11-20T14:05:22.707Z,38.75
2022-11-20T14:08:32.177Z,39.33
2022-11-20T14:11:34.941Z,41.72
2022-11-20T14:14:49.251Z,46.22
2022-11-20T14:17:51.947Z,45.05
2022-11-20T14:20:56.139Z,45.25
2022-11-20T14:24:05.897Z,42.63
2022-11-20T14:27:14.056Z,41.85
2022-11-20T14:30:19.351Z,50.85
2022-11-20T14:33:25.842Z,46.97
2022-11-20T14:36:29.781Z,40.42
2022-11-20T14:39:35.221Z,44.53
2022-11-20T14:42:38.403Z,47.78
2022-11-20T14:45:41.024Z,93.75
2022-11-20T14:48:47.120Z,74.03
2022-11-20T14:52:00.184Z,69.93
2022-11-20T14:55:02.796Z,79.77
2022-11-20T14:58:07.457Z,116.45
2022-11-20T15:01:15.134Z,119.25
2022-11-20T15:04:17.860Z,121.60
2022-11-20T15:07:29.900Z,93.55
2022-11-20T15:10:32.894Z,101.77
2022-11-20T15:13:38.579Z,109.32
2022-11-20T15:16:41.301Z,107.10
2022-11-20T15:19:44.416Z,96.43
2022-11-20T15:22:48.389Z,76.43
2022-11-20T15:25:51.271Z,78.73
2022-11-20T15:28:54.418Z,85.20
2022-11-20T15:31:57.534Z,93.18
2022-11-20T15:35:00.140Z,129.65
2022-11-20T15:38:04.358Z,101.88
2022-11-20T15:41:08.277Z,84.93
2022-11-20T15:44:12.209Z,84.00
2022-11-20T15:47:14.674Z,75.38
2022-11-20T15:50:18.820Z,63.30
2022-11-20T15:53:22.858Z,59.78
2022-11-20T15:56:26.244Z,60.97
2022-11-20T15:59:29.239Z,63.92
2022-11-20T16:02:32.582Z,64.68
2022-11-20T16:05:35.330Z,69.28
2022-11-20T16:08:39.408Z,56.97
2022-11-20T16:11:42.071Z,53.13
2022-11-20T16:15:03.626Z,54.65
2022-11-20T16:18:09.704Z,60.67
2022-11-20T16:21:14.232Z,51.20
2022-11-20T16:24:18.330Z,55.03
2022-11-20T16:27:22.166Z,62.60
2022-11-20T16:30:25.035Z,70.53
2022-11-20T16:33:27.724Z,79.47
2022-11-20T16:36:30.854Z,91.25
2022-11-20T16:39:35.219Z,108.05
2022-11-20T16:42:38.555Z,81.63
2022-11-20T16:45:42.492Z,61.90
2022-11-20T16:48:45.213Z,57.63
2022-11-20T16:51:48.531Z,47.55
2022-11-20T16:54:52.628Z,43.65
2022-11-20T16:57:55.396Z,45.07
2022-11-20T17:01:05.149Z,58.63
2022-11-20T17:04:07.915Z,53.58
2022-11-20T17:07:10.906Z,53.33
2022-11-20T17:10:15.352Z,57.65
2022-11-20T17:13:17.785Z,55.33
2022-11-20T17:16:23.314Z,55.78
2022-11-20T17:19:26.034Z,47.88
2022-11-20T17:22:28.711Z,48.45
2022-11-20T17:25:34.669Z,74.03
2022-11-20T17:28:38.297Z,220.33
2022-11-20T17:31:42.312Z,182.02
2022-11-20T17:34:44.975Z,80.43
2022-11-20T17:37:47.670Z,68.70
2022-11-20T17:40:51.807Z,58.80
2022-11-20T17:43:55.506Z,56.23
2022-11-20T17:46:58.235Z,51.78
2022-11-20T17:50:01.171Z,46.40
2022-11-20T17:53:04.043Z,50.13
2022-11-20T17:56:27.317Z,55.90
2022-11-20T17:59:30.093Z,54.83
2022-11-20T18:02:32.939Z,50.10
2022-11-20T18:05:35.759Z,53.97
2022-11-20T18:08:39.302Z,50.13
2022-11-20T18:11:44.055Z,57.95
2022-11-20T18:14:47.390Z,62.20
2022-11-20T18:17:50.123Z,66.30
2022-11-20T18:20:53.477Z,59.83
2022-11-20T18:23:56.781Z,70.38
2022-11-20T18:27:00.939Z,82.60
2022-11-20T18:30:04.722Z,78.73
2022-11-20T18:33:07.819Z,67.95
2022-11-20T18:36:11.233Z,54.63
2022-11-20T18:39:14.848Z,55.30
2022-11-20T18:42:37.803Z,56.80
2022-11-20T18:45:40.562Z,53.17
2022-11-20T18:48:43.827Z,56.53
2022-11-20T18:51:46.485Z,62.17
2022-11-20T18:54:50.706Z,62.60
2022-11-20T18:57:55.233Z,60.75
2022-11-20T19:01:05.079Z,66.00
2022-11-20T19:04:08.857Z,68.28
2022-11-20T19:07:14.518Z,145.20
2022-11-20T19:10:20.089Z,163.02
2022-11-20T19:13:24.339Z,112.15
2022-11-20T19:16:29.424Z,77.27
2022-11-20T19:19:32.050Z,72.53
2022-11-20T19:22:34.780Z,70.05
2022-11-20T19:25:38.490Z,75.22
2022-11-20T19:28:42.578Z,92.45
2022-11-20T19:31:45.626Z,97.43
2022-11-20T19:34:49.455Z,102.75
2022-11-20T19:37:52.294Z,96.15
2022-11-20T19:40:55.208Z,100.20
2022-11-20T19:44:00.988Z,83.93
2022-11-20T19:47:09.027Z,87.53
2022-11-20T19:50:15.933Z,81.25
2022-11-20T19:53:19.049Z,87.05
2022-11-20T19:56:23.775Z,93.50
2022-11-20T19:59:28.139Z,109.68
2022-11-20T20:02:31.096Z,106.63
2022-11-20T20:05:34.360Z,98.93
2022-11-20T20:08:37.603Z,123.13
2022-11-20T20:11:40.685Z,94.60
2022-11-20T20:14:44.472Z,86.80
2022-11-20T20:17:46.947Z,112.83
2022-11-20T20:20:49.714Z,563.55
2022-11-20T20:23:53.616Z,180.05
2022-11-20T20:26:58.266Z,160.30
2022-11-20T20:30:02.562Z,88.38
2022-11-20T20:33:05.310Z,65.70
2022-11-20T20:36:10.071Z,69.63
2022-11-20T20:39:12.810Z,69.70
2022-11-20T20:42:15.808Z,70.65
2022-11-20T20:45:19.826Z,64.03
2022-11-20T20:48:24.392Z,58.17
2022-11-20T20:51:27.414Z,62.80
2022-11-20T20:54:34.201Z,59.83
2022-11-20T20:57:37.794Z,62.17
2022-11-20T21:00:41.813Z,66.20
2022-11-20T21:03:44.508Z,78.73
2022-11-20T21:06:47.358Z,77.72
2022-11-20T21:09:50.376Z,72.95
2022-11-20T21:12:53.100Z,78.55
2022-11-20T21:15:57.189Z,80.72
2022-11-20T21:18:59.666Z,82.30
2022-11-20T21:22:04.880Z,83.28
2022-11-20T21:25:07.899Z,84.15
2022-11-20T21:28:15.481Z,88.03
2022-11-20T21:31:24.987Z,100.03
2022-11-20T21:34:27.703Z,97.10
2022-11-20T21:37:30.104Z,77.88
2022-11-20T21:40:33.279Z,68.50
2022-11-20T21:43:37.002Z,68.60
2022-11-20T21:46:42.747Z,58.17
2022-11-20T21:49:45.404Z,48.47
2022-11-20T21:52:47.970Z,46.08
2022-11-20T21:55:54.722Z,44.30
2022-11-20T21:58:57.268Z,42.35
2022-11-20T22:02:01.303Z,42.08
2022-11-20T22:05:04.148Z,45.60
2022-11-20T22:08:06.650Z,46.33
2022-11-20T22:11:11.555Z,49.42
2022-11-20T22:14:23.674Z,46.80
2022-11-20T22:17:46.458Z,45.55
2022-11-20T22:20:48.849Z,42.07
2022-11-20T22:23:51.538Z,43.70
2022-11-20T22:26:54.099Z,42.95
2022-11-20T22:29:56.551Z,43.75
2022-11-20T22:33:00.350Z,46.42
2022-11-20T22:36:04.512Z,44.40
2022-11-20T22:39:07.195Z,41.35
2022-11-20T22:42:09.620Z,44.03
2022-11-20T22:45:13.590Z,46.70
2022-11-20T22:48:17.836Z,44.58
2022-11-20T22:51:21.608Z,43.10
2022-11-20T22:54:24.418Z,47.15
2022-11-20T22:57:27.120Z,45.97
2022-11-20T23:00:29.704Z,40.63
2022-11-20T23:03:34.639Z,44.08
2022-11-20T23:06:37.610Z,48.33
2022-11-20T23:09:40.115Z,51.08
2022-11-20T23:12:42.511Z,52.88
2022-11-20T23:15:44.942Z,53.72
2022-11-20T23:18:52.955Z,55.50
2022-11-20T23:21:55.421Z,59.07
2022-11-20T23:24:57.931Z,49.08
2022-11-20T23:28:02.664Z,47.80
2022-11-20T23:31:06.142Z,44.83
2022-11-20T23:34:10.567Z,47.65
2022-11-20T23:37:12.984Z,42.57
2022-11-20T23:40:15.607Z,47.55
2022-11-20T23:43:20.095Z,44.67
2022-11-20T23:46:22.567Z,47.25
2022-11-20T23:49:26.511Z,44.55
2022-11-20T23:52:28.996Z,38.53
2022-11-20T23:55:32.218Z,37.90
2022-11-20T23:58:36.506Z,38.78
